YAYE Airport Information

Runway Information
Runway 13 Length 8527 ft width 98 ft
Elevation 1612 ft Threshold 0 ft Heading 130
Runway 31 Length 8527 ft Width 98 ft
Elevation 1626 ft Threshold 0 ft Heading 310
Airport Frequencies
Type ATIS Name ATIS Frequency 126.55 MHZ
Type CTAF Name CTAF Frequency 126.9 MHZ
Type FSS Name MELBOURNE Frequency 121.85 MHZ
Airport Navaids
Type NDB-DME Name Ayers Rock Frequency 233 KHZ
Airport Weather Information & NOTAM
ADDS - METARS form results

(1031 UTC 23 August 2019)
Data provider http://aviationweather.gov/metar/data/
 
METAR text: YAYE 231000Z AUTO 23005KT 9999 // NCD 16/M12 Q1019
Conditions at: YAYE (AYERS ROCK , AU) observed 1000 UTC 23 August 2019
Temperature: 16.0°C (61°F)
Dewpoint: -12.0°C (10°F) [RH = 13%]
Pressure (altimeter): 30.09 inches Hg (1019.0 mb)
Winds: from the SW (230 degrees) at 6 MPH (5 knots; 2.6 m/s)
Visibility: 6 or more miles (10+ km)
Ceiling: at least 12,000 feet AGL
Clouds: sky clear below 12,000 feet AGL
Weather: no significant weather observed at this time

x

Contacts Infinite Flight LiveFlight 

© Qantas Virtual Group | Powered by vaBase.com